Aviation Digital Data Service (ADDS)

Output produced by METARs form (1813 UTC 19 August 2019)
found at http://www.aviationweather.gov/metar/data/
 
Forecast for: LGAV (ATHENS/ELEF-VEN , GR)
Text: TAF LGAV 191700Z 1918/2018 03017KT 9999 FEW020
Forecast period: 1800 UTC 19 August 2019 to 1800 UTC 20 August 2019
Forecast type: FROM: standard forecast or significant change
Winds: from the NNE (30 degrees) at 20 MPH (17 knots; 8.7 m/s)
Visibility: 6 or more miles 10+ km)
Ceiling: at least 12,000 feet AGL
Clouds: few clouds at 2000 feet AGL
Weather: no significant weather forecast for this period
Text: TEMPO 2003/2014 03017G27KT
Forecast period: 0300 to 1400 UTC 20 August 2019
Forecast type: TEMPORARY: The following changes expected for less than half the time period
Winds: from the NNE (30 degrees) at 20 MPH (17 knots; 8.7 m/s)
gusting to 31 MPH (27 knots; 13.9 m/s)
Visibility: missing
Ceiling: unknown
Clouds: missing
Weather: no significant weather forecast for this period